Kapcsolat

Általános információk:
+36 30 959-8897
Színpadi programok:
+36 30 927-6653
Földi bemutatók:
+36 30 956-2308
Ellátók, vásározók:
+36 30 703-5898

Élőkép

Információk

Albatrosz Repülő Egyesület
8000 Székesfehérvár,
Radványi utca 6.

Adószám:
19092908-2-07

Bankszámla szám:
Budapest Bank
10102952-01361819-00000001

Telefon: +36 30 9598-897

Telephey: Börgönd repülőtér

Börgöndi repülõtér

LHBP METAR/TAF

[source: ADDS]
METAR
TAF LHBP 271700Z 2718/2818 29020G30KT 9999 FEW040 BECMG 2718/2720 31012KT CAVOK BECMG 2720/2723 32007KT TEMPO 2807/2811 FEW040 BECMG 2814/2817 VRB03KT TAF
TAF LHBP 271700Z 2718/2818 29020G30KT 9999 FEW040 BECMG 2718/2720 31012KT CAVOK BECMG 2720/2723 32007KT TEMPO 2807/2811 FEW040 BECMG 2814/2817 VRB03KT =
SR / SS: 04:01 / 17:37 UTC (Börgönd 2014-08-27)
Hungarian Chinese (Simplified) Croatian Czech English Finnish French German Hebrew Italian Japanese Polish Portuguese Romanian Russian Serbian Slovak Slovenian Spanish

Belépés tagoknak